Time;durP1;ratioP1;P1;durP2;ratioP2;P2;SDS_P1;SDS_P2;PMS_P1;PMS_P2;Temp;Humidity;BMP_temperature;BMP_pressure;BME280_temperature;BME280_humidity;BME280_pressure;Samples;Min_cycle;Max_cycle;Signal;HPM_P1;HPM_P2
2023/08/28 00:02:11;;;;;;;915.77;748.27;;;;;;;;;;5085480;28;20028;-58
2023/08/28 00:04:36;;;;;;;911.15;721.45;;;;;;;;;;5085164;28;20241;-58
2023/08/28 00:07:02;;;;;;;910.50;724.80;;;;;;;;;;5085128;28;20138;-58
2023/08/28 00:09:27;;;;;;;916.72;736.58;;;;;;;;;;5087356;28;20260;-58
2023/08/28 00:11:53;;;;;;;950.25;712.08;;;;;;;;;;5086115;28;20458;-58
2023/08/28 00:14:19;;;;;;;909.63;728.05;;;;;;;;;;5086733;28;20073;-57
2023/08/28 00:16:44;;;;;;;911.20;726.78;;;;;;;;;;5084777;28;20024;-55
2023/08/28 00:19:09;;;;;;;904.85;712.20;;;;;;;;;;5086524;28;20028;-59
2023/08/28 00:21:34;;;;;;;946.63;799.20;;;;;;;;;;5086405;28;20024;-59
2023/08/28 00:24:00;;;;;;;942.80;809.47;;;;;;;;;;5084539;28;20268;-57
2023/08/28 00:26:25;;;;;;;945.70;769.00;;;;;;;;;;5086931;28;20555;-54
2023/08/28 00:28:50;;;;;;;942.00;764.78;;;;;;;;;;5084955;28;20052;-58
2023/08/28 00:31:15;;;;;;;944.57;785.03;;;;;;;;;;5101466;28;20044;-58
2023/08/28 00:33:41;;;;;;;926.27;773.00;;;;;;;;;;5068179;28;20395;-55
2023/08/28 00:36:06;;;;;;;910.80;713.63;;;;;;;;;;5070128;28;20765;-58
2023/08/28 00:38:31;;;;;;;903.73;713.40;;;;;;;;;;5084875;28;20024;-58
2023/08/28 00:40:57;;;;;;;907.83;721.78;;;;;;;;;;5086652;28;20634;-57
2023/08/28 00:43:22;;;;;;;944.67;799.78;;;;;;;;;;5085017;28;20035;-56
2023/08/28 00:45:47;;;;;;;902.60;702.83;;;;;;;;;;5086353;28;20461;-58
2023/08/28 00:48:14;;;;;;;935.60;799.22;;;;;;;;;;5083288;28;20029;-56
2023/08/28 00:50:39;;;;;;;910.35;711.10;;;;;;;;;;5086605;28;20369;-57
2023/08/28 00:53:05;;;;;;;916.22;743.15;;;;;;;;;;5084385;28;20044;-57
2023/08/28 00:55:31;;;;;;;921.30;758.40;;;;;;;;;;5085746;28;20016;-55
2023/08/28 00:57:56;;;;;;;912.08;737.08;;;;;;;;;;5085020;28;20024;-57
2023/08/28 01:00:21;;;;;;;897.33;690.40;;;;;;;;;;5086156;28;20024;-57
2023/08/28 01:02:47;;;;;;;905.55;695.17;;;;;;;;;;5084376;28;20314;-55
2023/08/28 01:05:12;;;;;;;898.83;693.22;;;;;;;;;;5084126;28;20119;-58
2023/08/28 01:07:52;;;;;;;900.00;691.88;;;;;;;;;;5084754;28;20028;-58
2023/08/28 01:10:28;;;;;;;896.35;690.55;;;;;;;;;;5085846;28;20027;-56
2023/08/28 01:13:05;;;;;;;909.08;705.40;;;;;;;;;;5084374;28;20074;-58
2023/08/28 01:15:32;;;;;;;909.92;709.35;;;;;;;;;;5086100;28;20074;-58
2023/08/28 01:18:01;;;;;;;980.72;804.05;;;;;;;;;;5084284;28;20031;-58
2023/08/28 01:20:30;;;;;;;941.80;693.47;;;;;;;;;;5084187;28;20024;-55
2023/08/28 01:23:02;;;;;;;940.05;695.00;;;;;;;;;;5081401;28;20058;-58
2023/08/28 01:25:29;;;;;;;934.20;679.90;;;;;;;;;;5085612;28;20299;-57
2023/08/28 01:27:55;;;;;;;892.83;675.17;;;;;;;;;;5101304;28;20039;-58
2023/08/28 01:30:21;;;;;;;922.60;726.25;;;;;;;;;;5086286;28;20036;-55
2023/08/28 01:32:46;;;;;;;902.42;697.15;;;;;;;;;;5102445;28;20605;-58
2023/08/28 01:35:20;;;;;;;904.13;693.55;;;;;;;;;;5103145;28;20015;-56
2023/08/28 01:38:24;;;;;;;898.28;682.30;;;;;;;;;;5084525;28;20580;-58
2023/08/28 01:40:52;;;;;;;897.45;676.10;;;;;;;;;;5022178;28;20041;-58
2023/08/28 01:43:22;;;;;;;899.60;691.83;;;;;;;;;;5018354;28;20041;-57
2023/08/28 01:45:47;;;;;;;912.47;727.60;;;;;;;;;;5021386;28;20817;-57
2023/08/28 01:48:13;;;;;;;896.17;671.92;;;;;;;;;;5021042;28;20029;-57
2023/08/28 01:50:38;;;;;;;912.13;724.63;;;;;;;;;;5022166;28;20052;-57
2023/08/28 01:53:03;;;;;;;891.20;674.70;;;;;;;;;;5020602;28;20589;-57
2023/08/28 01:55:51;;;;;;;929.60;795.60;;;;;;;;;;5019385;28;20144;-57
2023/08/28 01:58:17;;;;;;;890.92;659.40;;;;;;;;;;4962297;28;20055;-55
2023/08/28 02:00:42;;;;;;;890.92;667.70;;;;;;;;;;4963886;28;20074;-56
2023/08/28 02:03:09;;;;;;;887.90;656.37;;;;;;;;;;4962299;28;20038;-57
2023/08/28 02:05:34;;;;;;;896.15;671.30;;;;;;;;;;4959430;28;20257;-53
2023/08/28 02:07:59;;;;;;;948.75;700.92;;;;;;;;;;4954916;28;20475;-57
2023/08/28 02:10:24;;;;;;;917.78;711.30;;;;;;;;;;4963788;28;20092;-57
2023/08/28 02:12:50;;;;;;;887.15;655.75;;;;;;;;;;5021663;28;20083;-56
2023/08/28 02:15:15;;;;;;;899.33;696.58;;;;;;;;;;5021408;28;20529;-56
2023/08/28 02:17:40;;;;;;;888.00;653.57;;;;;;;;;;5021392;28;20025;-57
2023/08/28 02:20:06;;;;;;;891.90;658.73;;;;;;;;;;5021646;28;20262;-58
2023/08/28 02:22:31;;;;;;;893.70;673.53;;;;;;;;;;5021600;28;20305;-54
2023/08/28 02:24:58;;;;;;;882.92;650.17;;;;;;;;;;5021982;28;20029;-58
2023/08/28 02:27:23;;;;;;;896.88;676.25;;;;;;;;;;5000450;28;20057;-58
2023/08/28 02:29:49;;;;;;;906.53;689.53;;;;;;;;;;5002387;28;20471;-55
2023/08/28 02:32:14;;;;;;;916.03;705.93;;;;;;;;;;5019523;28;20079;-57
2023/08/28 02:34:39;;;;;;;919.70;718.47;;;;;;;;;;5035972;28;20248;-58
2023/08/28 02:37:04;;;;;;;930.63;695.80;;;;;;;;;;5082396;28;20358;-58
2023/08/28 02:39:30;;;;;;;875.50;635.78;;;;;;;;;;5064905;28;20035;-57
2023/08/28 02:41:56;;;;;;;926.72;694.30;;;;;;;;;;5082985;28;20103;-57
2023/08/28 02:44:21;;;;;;;909.35;649.95;;;;;;;;;;5083994;28;20252;-57
2023/08/28 02:46:46;;;;;;;920.70;689.13;;;;;;;;;;5082140;28;20094;-57
2023/08/28 02:49:12;;;;;;;881.37;650.90;;;;;;;;;;5083234;28;20611;-56
2023/08/28 02:51:37;;;;;;;874.78;629.30;;;;;;;;;;5083415;28;20625;-56
2023/08/28 02:54:02;;;;;;;869.70;620.20;;;;;;;;;;5081486;28;20039;-56
2023/08/28 02:56:33;;;;;;;879.45;640.70;;;;;;;;;;5083323;28;20009;-57
2023/08/28 02:58:59;;;;;;;873.70;619.28;;;;;;;;;;5064683;28;20109;-57
2023/08/28 03:01:24;;;;;;;916.25;713.63;;;;;;;;;;5064528;28;20086;-56
2023/08/28 03:03:49;;;;;;;912.97;646.15;;;;;;;;;;5081783;28;20573;-57
2023/08/28 03:06:14;;;;;;;909.42;648.97;;;;;;;;;;5074827;28;20028;-57
2023/08/28 03:08:40;;;;;;;910.33;658.72;;;;;;;;;;5067583;28;20031;-54
2023/08/28 03:11:05;;;;;;;910.22;663.83;;;;;;;;;;5071983;28;20051;-55
2023/08/28 03:13:30;;;;;;;906.22;663.92;;;;;;;;;;5086681;28;20024;-56
2023/08/28 03:15:55;;;;;;;907.75;645.92;;;;;;;;;;5089071;28;20519;-57
2023/08/28 03:18:21;;;;;;;901.47;608.45;;;;;;;;;;5068064;28;20028;-56
2023/08/28 03:20:46;;;;;;;905.67;643.42;;;;;;;;;;5088434;28;20027;-57
2023/08/28 03:23:12;;;;;;;910.95;674.45;;;;;;;;;;5086608;28;20050;-57
2023/08/28 03:25:37;;;;;;;898.88;639.10;;;;;;;;;;5088114;28;20436;-54
2023/08/28 03:28:07;;;;;;;907.05;683.13;;;;;;;;;;5086665;28;20465;-58
2023/08/28 03:30:32;;;;;;;911.70;660.80;;;;;;;;;;5089759;28;20060;-55
2023/08/28 03:32:57;;;;;;;901.65;634.42;;;;;;;;;;5084588;28;20582;-57
2023/08/28 03:35:22;;;;;;;919.92;654.58;;;;;;;;;;5087333;28;20028;-58
2023/08/28 03:37:48;;;;;;;919.65;675.95;;;;;;;;;;5085085;28;20500;-56
2023/08/28 03:40:13;;;;;;;916.30;654.55;;;;;;;;;;5087966;28;20453;-57
2023/08/28 03:42:38;;;;;;;921.30;675.30;;;;;;;;;;5085686;28;20024;-57
2023/08/28 03:45:04;;;;;;;905.70;654.53;;;;;;;;;;5087341;28;20107;-58
2023/08/28 03:47:29;;;;;;;902.15;636.33;;;;;;;;;;5085885;28;20012;-57
2023/08/28 03:49:54;;;;;;;898.90;619.47;;;;;;;;;;5087042;28;20024;-56
2023/08/28 03:52:19;;;;;;;909.30;629.20;;;;;;;;;;5085137;28;20082;-57
2023/08/28 03:54:44;;;;;;;897.47;635.50;;;;;;;;;;5101363;28;20260;-58
2023/08/28 03:57:10;;;;;;;878.93;603.00;;;;;;;;;;5087071;28;20260;-56
2023/08/28 03:59:35;;;;;;;858.85;556.92;;;;;;;;;;5087383;28;20986;-57
2023/08/28 04:02:02;;;;;;;865.72;564.88;;;;;;;;;;5085759;28;20020;-57
2023/08/28 04:04:27;;;;;;;915.40;639.83;;;;;;;;;;5086749;28;20039;-55
2023/08/28 04:06:53;;;;;;;862.95;565.40;;;;;;;;;;5084335;28;20474;-58
2023/08/28 04:09:18;;;;;;;905.88;629.75;;;;;;;;;;5087617;28;20043;-54
2023/08/28 04:11:43;;;;;;;895.88;643.17;;;;;;;;;;5087666;28;20059;-58
2023/08/28 04:14:08;;;;;;;903.08;608.17;;;;;;;;;;5087425;28;20016;-58
2023/08/28 04:16:34;;;;;;;881.55;612.97;;;;;;;;;;5085431;28;20458;-55
2023/08/28 04:18:59;;;;;;;891.38;657.22;;;;;;;;;;5082743;28;20717;-58
2023/08/28 04:21:25;;;;;;;900.22;658.42;;;;;;;;;;5104380;28;20134;-57
2023/08/28 04:23:50;;;;;;;904.75;634.65;;;;;;;;;;5102991;28;20070;-58
2023/08/28 04:26:15;;;;;;;893.30;654.35;;;;;;;;;;5104598;28;20228;-57
2023/08/28 04:28:40;;;;;;;903.17;637.03;;;;;;;;;;5085084;28;20028;-59
2023/08/28 04:31:08;;;;;;;887.55;633.40;;;;;;;;;;5069731;28;20617;-58
2023/08/28 04:33:33;;;;;;;890.40;647.83;;;;;;;;;;5101902;28;20593;-58
2023/08/28 04:35:58;;;;;;;883.63;638.13;;;;;;;;;;5104519;28;20027;-55
2023/08/28 04:38:24;;;;;;;907.95;641.50;;;;;;;;;;5102922;28;20816;-58
2023/08/28 04:40:49;;;;;;;899.10;659.97;;;;;;;;;;5103734;28;20032;-58
2023/08/28 04:43:14;;;;;;;898.95;644.13;;;;;;;;;;5102354;28;20035;-57
2023/08/28 04:45:39;;;;;;;904.80;634.80;;;;;;;;;;5103847;28;20111;-58
2023/08/28 04:48:05;;;;;;;896.08;609.00;;;;;;;;;;5049054;28;20032;-58
2023/08/28 04:50:30;;;;;;;891.65;614.05;;;;;;;;;;5083564;28;20308;-55
2023/08/28 04:52:55;;;;;;;903.17;623.55;;;;;;;;;;5079541;28;20491;-58
2023/08/28 04:55:21;;;;;;;895.25;585.42;;;;;;;;;;5081614;28;20031;-57
2023/08/28 04:57:46;;;;;;;900.80;597.25;;;;;;;;;;5084681;28;20492;-56
2023/08/28 05:00:11;;;;;;;922.75;650.70;;;;;;;;;;5084652;28;20031;-57
2023/08/28 05:02:37;;;;;;;925.42;669.58;;;;;;;;;;5084489;28;20389;-58
2023/08/28 05:05:03;;;;;;;914.90;635.13;;;;;;;;;;5085543;28;20028;-58
2023/08/28 05:07:28;;;;;;;904.65;624.70;;;;;;;;;;5084463;28;20047;-55
2023/08/28 05:09:53;;;;;;;909.38;642.03;;;;;;;;;;5085839;28;20555;-55
2023/08/28 05:12:18;;;;;;;932.58;667.03;;;;;;;;;;5082183;28;20032;-58
2023/08/28 05:14:44;;;;;;;911.78;639.83;;;;;;;;;;5084365;28;20077;-57
2023/08/28 05:17:09;;;;;;;913.63;644.65;;;;;;;;;;5084245;28;21224;-54
2023/08/28 05:19:35;;;;;;;920.37;652.47;;;;;;;;;;5086028;28;20031;-56
2023/08/28 05:22:00;;;;;;;963.45;758.08;;;;;;;;;;5084983;28;20245;-57
2023/08/28 05:24:25;;;;;;;912.33;712.78;;;;;;;;;;5084770;28;20035;-58
2023/08/28 05:26:51;;;;;;;962.80;728.93;;;;;;;;;;5081399;28;20028;-59
2023/08/28 05:29:16;;;;;;;934.78;738.08;;;;;;;;;;5084946;28;20237;-54
2023/08/28 05:31:41;;;;;;;984.23;779.50;;;;;;;;;;5080007;28;20016;-58
2023/08/28 05:34:06;;;;;;;945.00;813.03;;;;;;;;;;5083577;28;20264;-57
2023/08/28 05:36:32;;;;;;;946.27;776.10;;;;;;;;;;5097680;28;20273;-56
2023/08/28 05:38:57;;;;;;;962.88;783.38;;;;;;;;;;5079283;28;20282;-58
2023/08/28 05:41:22;;;;;;;964.00;781.92;;;;;;;;;;5082205;28;20058;-58
2023/08/28 05:43:48;;;;;;;964.40;786.97;;;;;;;;;;5081976;28;20023;-58
2023/08/28 05:46:13;;;;;;;961.60;777.58;;;;;;;;;;5084526;28;20613;-53
2023/08/28 05:48:38;;;;;;;965.60;775.90;;;;;;;;;;5082216;28;20028;-59
2023/08/28 05:51:04;;;;;;;994.70;803.70;;;;;;;;;;5083045;28;20252;-59
2023/08/28 05:53:29;;;;;;;1005.97;828.47;;;;;;;;;;5080986;28;20627;-56
2023/08/28 05:55:54;;;;;;;1015.08;868.15;;;;;;;;;;5084398;28;20492;-58
2023/08/28 05:58:20;;;;;;;991.35;856.63;;;;;;;;;;5078308;28;20466;-56
2023/08/28 06:00:46;;;;;;;1032.63;878.58;;;;;;;;;;5077139;28;20020;-53
2023/08/28 06:03:11;;;;;;;997.42;870.67;;;;;;;;;;5068797;28;20013;-59
2023/08/28 06:05:38;;;;;;;964.35;854.60;;;;;;;;;;5074013;28;20444;-57
2023/08/28 06:08:03;;;;;;;960.95;854.75;;;;;;;;;;5080143;28;20012;-56
2023/08/28 06:10:28;;;;;;;1032.20;918.25;;;;;;;;;;5082112;28;20031;-58
2023/08/28 06:12:54;;;;;;;1018.35;902.80;;;;;;;;;;5080276;28;20044;-56
2023/08/28 06:15:19;;;;;;;1039.15;913.78;;;;;;;;;;5081273;28;20033;-56
2023/08/28 06:17:45;;;;;;;1020.47;890.90;;;;;;;;;;5070767;28;20016;-58
2023/08/28 06:20:10;;;;;;;979.35;872.38;;;;;;;;;;5076500;28;20894;-57
2023/08/28 06:22:36;;;;;;;968.60;862.42;;;;;;;;;;5076134;28;20032;-55
2023/08/28 06:25:02;;;;;;;974.20;867.35;;;;;;;;;;5076859;28;20024;-58
2023/08/28 06:27:27;;;;;;;1011.45;901.45;;;;;;;;;;5081433;28;20026;-54
2023/08/28 06:29:53;;;;;;;986.30;878.80;;;;;;;;;;5072117;28;20036;-58
2023/08/28 06:32:18;;;;;;;1054.30;938.17;;;;;;;;;;5072965;28;20077;-53
2023/08/28 06:34:43;;;;;;;1001.20;892.50;;;;;;;;;;5074114;28;20020;-56
2023/08/28 06:37:09;;;;;;;1002.77;894.07;;;;;;;;;;5092704;28;20024;-58
2023/08/28 06:39:34;;;;;;;1059.20;933.87;;;;;;;;;;5072392;28;20294;-55
2023/08/28 06:41:59;;;;;;;1003.53;848.60;;;;;;;;;;5078507;28;20332;-57
2023/08/28 06:44:24;;;;;;;1049.87;935.53;;;;;;;;;;5072816;28;20267;-58
2023/08/28 06:46:50;;;;;;;994.80;842.27;;;;;;;;;;5092153;28;20634;-58
2023/08/28 06:49:16;;;;;;;1041.13;908.42;;;;;;;;;;5076080;28;21102;-55
2023/08/28 06:51:41;;;;;;;1023.38;874.22;;;;;;;;;;5075476;28;20334;-55
2023/08/28 06:54:06;;;;;;;998.47;855.53;;;;;;;;;;5080841;28;20062;-56
2023/08/28 06:56:32;;;;;;;1063.53;947.57;;;;;;;;;;5086330;28;20261;-58
2023/08/28 06:58:57;;;;;;;1072.47;953.77;;;;;;;;;;5070420;28;20301;-59
2023/08/28 07:01:22;;;;;;;1044.90;891.63;;;;;;;;;;5076506;28;20081;-57
2023/08/28 07:03:47;;;;;;;1012.03;856.20;;;;;;;;;;5073927;28;20360;-55
2023/08/28 07:06:13;;;;;;;1113.05;998.97;;;;;;;;;;5068117;28;20265;-57
2023/08/28 07:08:39;;;;;;;1011.10;901.88;;;;;;;;;;5076710;28;20051;-58
2023/08/28 07:11:04;;;;;;;1024.65;915.38;;;;;;;;;;5078337;28;20086;-58
2023/08/28 07:13:29;;;;;;;1021.10;911.28;;;;;;;;;;5080295;28;20413;-58
2023/08/28 07:15:55;;;;;;;1016.87;907.30;;;;;;;;;;5078555;28;20030;-58
2023/08/28 07:18:20;;;;;;;1149.22;999.90;;;;;;;;;;5081281;28;20326;-56
2023/08/28 07:20:45;;;;;;;1126.13;999.90;;;;;;;;;;5075498;28;20016;-56
2023/08/28 07:23:11;;;;;;;1060.30;948.97;;;;;;;;;;5077976;28;20465;-58
2023/08/28 07:25:36;;;;;;;1076.00;963.15;;;;;;;;;;5081782;28;20681;-56
2023/08/28 07:28:01;;;;;;;1056.67;945.40;;;;;;;;;;5071965;28;20119;-53
2023/08/28 07:30:27;;;;;;;1046.20;935.45;;;;;;;;;;5076129;28;20745;-56
2023/08/28 07:32:52;;;;;;;1002.37;865.07;;;;;;;;;;5076567;28;20027;-54
2023/08/28 07:35:17;;;;;;;1007.80;867.33;;;;;;;;;;5075003;28;20245;-57
2023/08/28 07:37:42;;;;;;;1006.97;859.00;;;;;;;;;;5076939;28;20268;-58
2023/08/28 07:40:09;;;;;;;1000.70;860.23;;;;;;;;;;5070832;28;22720;-52
2023/08/28 07:42:34;;;;;;;1021.63;876.08;;;;;;;;;;5077442;28;20769;-55
2023/08/28 07:44:59;;;;;;;1071.07;948.03;;;;;;;;;;5080110;28;20125;-57
2023/08/28 07:47:25;;;;;;;1089.35;971.33;;;;;;;;;;5074462;28;20028;-57
2023/08/28 07:49:51;;;;;;;1086.30;970.03;;;;;;;;;;5076488;28;20016;-55
2023/08/28 07:52:16;;;;;;;1076.77;947.83;;;;;;;;;;5080105;28;20508;-57
2023/08/28 07:54:41;;;;;;;1039.87;902.83;;;;;;;;;;5077910;28;20626;-57
2023/08/28 07:57:07;;;;;;;1054.67;942.27;;;;;;;;;;5077189;28;20636;-58
2023/08/28 07:59:33;;;;;;;1062.63;949.05;;;;;;;;;;5075720;28;20257;-56
2023/08/28 08:01:58;;;;;;;1096.50;977.85;;;;;;;;;;5073263;28;20025;-56
2023/08/28 08:04:25;;;;;;;1060.60;947.97;;;;;;;;;;5082651;28;20032;-55
2023/08/28 08:06:50;;;;;;;1090.13;970.35;;;;;;;;;;5076720;28;20267;-54
2023/08/28 08:09:15;;;;;;;1060.23;946.60;;;;;;;;;;5081696;28;20563;-54
2023/08/28 08:11:40;;;;;;;1041.40;929.20;;;;;;;;;;5080520;28;20296;-55
2023/08/28 08:14:06;;;;;;;1009.60;901.33;;;;;;;;;;5095816;28;20287;-54
2023/08/28 08:16:31;;;;;;;1006.57;899.07;;;;;;;;;;5071687;28;20044;-56
2023/08/28 08:18:56;;;;;;;1023.97;914.65;;;;;;;;;;5072161;28;20657;-57
2023/08/28 08:21:21;;;;;;;1061.30;948.30;;;;;;;;;;5078823;28;20158;-57
2023/08/28 08:23:48;;;;;;;1030.10;921.10;;;;;;;;;;5059341;28;20261;-56
2023/08/28 08:26:14;;;;;;;1028.15;918.53;;;;;;;;;;5071419;28;20482;-58
2023/08/28 08:28:40;;;;;;;1117.53;998.05;;;;;;;;;;5070635;28;20476;-60
2023/08/28 08:31:05;;;;;;;1073.95;959.95;;;;;;;;;;5080908;28;20410;-58
2023/08/28 08:33:30;;;;;;;1048.70;934.72;;;;;;;;;;5079451;28;20028;-60
2023/08/28 08:35:55;;;;;;;1052.13;937.83;;;;;;;;;;5071316;28;20032;-58
2023/08/28 08:38:21;;;;;;;1072.10;957.60;;;;;;;;;;5076794;28;20115;-59
2023/08/28 08:40:50;;;;;;;1045.15;931.22;;;;;;;;;;5079213;28;20772;-57
2023/08/28 08:43:15;;;;;;;;;;;;;;;;;;5079310;28;20020;-55
2023/08/28 08:45:41;;;;;;;1026.97;913.38;;;;;;;;;;5078911;28;19908;-58
2023/08/28 08:48:09;;;;;;;1043.30;915.45;;;;;;;;;;5081062;28;20076;-58
2023/08/28 08:50:36;;;;;;;1048.47;936.70;;;;;;;;;;5080919;28;20316;-56
2023/08/28 08:53:05;;;;;;;1076.32;961.70;;;;;;;;;;5077959;28;20059;-58
2023/08/28 08:55:45;;;;;;;1036.55;922.25;;;;;;;;;;5072837;28;20044;-58
2023/08/28 08:58:13;;;;;;;1029.78;916.08;;;;;;;;;;5071271;28;20020;-59
2023/08/28 09:00:39;;;;;;;1037.05;922.28;;;;;;;;;;5071364;28;20043;-57
2023/08/28 09:03:07;;;;;;;1030.80;911.30;;;;;;;;;;5073301;28;20039;-59
2023/08/28 09:05:33;;;;;;;1032.28;918.63;;;;;;;;;;5082489;28;20089;-57
2023/08/28 09:08:03;;;;;;;1029.43;915.70;;;;;;;;;;5081953;28;20035;-60
2023/08/28 09:10:29;;;;;;;1036.72;927.17;;;;;;;;;;5066872;28;20439;-59
2023/08/28 09:12:54;;;;;;;1079.13;965.92;;;;;;;;;;5069021;28;20039;-57
2023/08/28 09:15:20;;;;;;;1049.65;939.28;;;;;;;;;;5075177;28;20473;-60
2023/08/28 09:17:45;;;;;;;1045.32;934.72;;;;;;;;;;5075291;28;20016;-57
2023/08/28 09:20:16;;;;;;;1040.63;930.55;;;;;;;;;;5074340;28;20042;-60
2023/08/28 09:22:45;;;;;;;1088.15;972.47;;;;;;;;;;5082269;28;20024;-57
2023/08/28 09:25:10;;;;;;;1076.55;961.50;;;;;;;;;;5076388;28;20043;-60
2023/08/28 09:27:40;;;;;;;1126.70;999.70;;;;;;;;;;5082665;28;20555;-60
2023/08/28 09:30:26;;;;;;;1183.75;999.90;;;;;;;;;;5076276;28;20264;-59
2023/08/28 09:32:51;;;;;;;1166.38;999.90;;;;;;;;;;5077551;28;20039;-57
2023/08/28 09:35:19;;;;;;;1049.40;910.20;;;;;;;;;;5073099;28;20036;-59
2023/08/28 09:37:44;;;;;;;1111.88;991.25;;;;;;;;;;5075785;28;20790;-58
2023/08/28 09:40:09;;;;;;;1177.73;999.90;;;;;;;;;;5072024;28;20050;-56
2023/08/28 09:42:35;;;;;;;1169.10;999.90;;;;;;;;;;5078365;28;20030;-58
2023/08/28 09:45:04;;;;;;;1202.67;999.90;;;;;;;;;;5077921;28;20040;-59
2023/08/28 09:47:30;;;;;;;1133.85;999.90;;;;;;;;;;5070171;28;20260;-58
2023/08/28 09:49:56;;;;;;;1134.93;999.90;;;;;;;;;;5080992;28;20558;-58
2023/08/28 09:52:25;;;;;;;1136.20;999.90;;;;;;;;;;5080057;28;20055;-60
2023/08/28 09:55:01;;;;;;;1052.35;934.05;;;;;;;;;;5082350;28;20036;-58
2023/08/28 09:57:26;;;;;;;1086.60;965.55;;;;;;;;;;5078599;28;20385;-58
2023/08/28 09:59:51;;;;;;;1111.77;990.17;;;;;;;;;;5078800;28;20240;-58
2023/08/28 10:02:19;;;;;;;1130.13;999.90;;;;;;;;;;5081022;28;20353;-60
2023/08/28 10:04:44;;;;;;;1106.40;984.05;;;;;;;;;;5078863;28;20063;-60
2023/08/28 10:07:11;;;;;;;1065.32;954.15;;;;;;;;;;5079621;28;20438;-59
2023/08/28 10:09:39;;;;;;;1035.60;909.60;;;;;;;;;;5076267;28;20036;-57
2023/08/28 10:12:06;;;;;;;1056.55;939.83;;;;;;;;;;5082324;28;20059;-59
2023/08/28 10:14:33;;;;;;;1047.57;917.80;;;;;;;;;;5084112;28;20024;-59
2023/08/28 10:17:04;;;;;;;1177.97;999.90;;;;;;;;;;5079521;28;20378;-59
2023/08/28 10:19:41;;;;;;;1159.50;999.90;;;;;;;;;;5081630;28;20077;-59
2023/08/28 10:22:07;;;;;;;1206.57;999.90;;;;;;;;;;5082927;28;20047;-59
2023/08/28 10:24:35;;;;;;;1222.30;999.90;;;;;;;;;;5084352;28;20020;-59
2023/08/28 10:27:00;;;;;;;1160.57;999.90;;;;;;;;;;5084422;28;20050;-60
2023/08/28 10:29:26;;;;;;;1122.10;999.40;;;;;;;;;;5082279;28;20116;-60
2023/08/28 10:31:53;;;;;;;1074.80;962.85;;;;;;;;;;5082473;28;20039;-58
2023/08/28 10:34:18;;;;;;;1108.18;992.47;;;;;;;;;;5083323;28;20267;-58
2023/08/28 10:36:45;;;;;;;1108.18;992.63;;;;;;;;;;5078325;28;20068;-59
2023/08/28 10:39:11;;;;;;;1074.75;962.08;;;;;;;;;;5072481;28;20432;-60
2023/08/28 10:41:37;;;;;;;1066.40;955.22;;;;;;;;;;5075463;28;20016;-58
2023/08/28 10:44:03;;;;;;;1086.13;973.65;;;;;;;;;;5076226;28;20469;-59
2023/08/28 10:46:29;;;;;;;1062.55;951.70;;;;;;;;;;5080592;28;20052;-59
2023/08/28 10:48:58;;;;;;;1065.13;953.88;;;;;;;;;;5073546;28;20112;-58
2023/08/28 10:51:29;;;;;;;1068.45;957.22;;;;;;;;;;5078817;28;20056;-58
2023/08/28 10:53:58;;;;;;;1117.03;997.10;;;;;;;;;;5068622;28;20599;-60
2023/08/28 10:56:23;;;;;;;1112.90;995.70;;;;;;;;;;5075224;28;20078;-60
2023/08/28 10:58:48;;;;;;;1113.80;998.00;;;;;;;;;;5068169;28;20066;-61
2023/08/28 11:01:14;;;;;;;1118.90;998.13;;;;;;;;;;5071292;28;20028;-60
2023/08/28 11:03:51;;;;;;;1073.38;961.70;;;;;;;;;;5069608;28;20435;-61
2023/08/28 11:06:36;;;;;;;1116.10;996.88;;;;;;;;;;5070914;28;20027;-59
2023/08/28 11:09:20;;;;;;;1099.13;985.67;;;;;;;;;;5064724;28;20027;-60
2023/08/28 11:11:45;;;;;;;1073.45;962.05;;;;;;;;;;5069269;28;20082;-60
2023/08/28 11:14:13;;;;;;;1066.93;955.10;;;;;;;;;;5071795;28;20481;-61
2023/08/28 11:16:39;;;;;;;1079.90;967.35;;;;;;;;;;5077552;28;20269;-58
2023/08/28 11:19:05;;;;;;;1075.88;964.22;;;;;;;;;;5073457;28;20021;-60
2023/08/28 11:21:39;;;;;;;1084.85;972.25;;;;;;;;;;5065641;28;20024;-60
2023/08/28 11:24:15;;;;;;;1109.25;994.50;;;;;;;;;;5072544;28;20048;-58
2023/08/28 11:26:44;;;;;;;1174.05;999.90;;;;;;;;;;5072324;28;20165;-59
2023/08/28 11:29:24;;;;;;;1198.70;999.90;;;;;;;;;;5072761;28;20115;-58
2023/08/28 11:31:50;;;;;;;1109.18;994.70;;;;;;;;;;5079022;28;20473;-61
2023/08/28 11:34:15;;;;;;;1086.78;973.85;;;;;;;;;;5075836;28;20113;-60
2023/08/28 11:36:40;;;;;;;1200.15;999.90;;;;;;;;;;5082872;28;20420;-59
2023/08/28 11:39:05;;;;;;;1098.27;984.30;;;;;;;;;;5080823;28;20077;-57
2023/08/28 11:41:31;;;;;;;1085.37;972.53;;;;;;;;;;5079697;28;20512;-58
2023/08/28 11:43:56;;;;;;;1095.50;982.60;;;;;;;;;;5079353;28;20267;-60
2023/08/28 11:46:24;;;;;;;1084.33;971.30;;;;;;;;;;5076060;28;20048;-60
2023/08/28 11:48:49;;;;;;;1082.97;970.50;;;;;;;;;;5076336;28;20269;-60
2023/08/28 11:51:15;;;;;;;1084.65;972.03;;;;;;;;;;5081221;28;20078;-59
2023/08/28 11:53:41;;;;;;;1083.45;971.33;;;;;;;;;;5075485;28;20110;-59
2023/08/28 11:56:07;;;;;;;1079.28;967.47;;;;;;;;;;5084201;28;20122;-60
2023/08/28 11:58:37;;;;;;;1094.50;980.40;;;;;;;;;;5075313;28;20031;-60
2023/08/28 12:01:07;;;;;;;1227.40;999.90;;;;;;;;;;5078174;28;20028;-60
2023/08/28 12:03:33;;;;;;;1240.15;999.90;;;;;;;;;;5077640;28;20050;-61
2023/08/28 12:06:06;;;;;;;1150.45;999.90;;;;;;;;;;5078613;28;20024;-61
2023/08/28 12:08:31;;;;;;;1155.45;999.90;;;;;;;;;;5075990;28;20367;-57
2023/08/28 12:10:58;;;;;;;1234.13;999.90;;;;;;;;;;5077560;28;21129;-61
2023/08/28 12:13:23;;;;;;;1159.15;999.90;;;;;;;;;;5075021;28;20088;-60
2023/08/28 12:15:48;;;;;;;1183.20;999.90;;;;;;;;;;5078273;28;20024;-60
2023/08/28 12:18:13;;;;;;;1202.60;999.90;;;;;;;;;;5079048;28;20256;-60
2023/08/28 12:20:39;;;;;;;1145.73;999.90;;;;;;;;;;5076147;28;20152;-60
2023/08/28 12:23:04;;;;;;;1155.20;999.90;;;;;;;;;;5079419;28;20021;-60
2023/08/28 12:25:33;;;;;;;1139.28;999.90;;;;;;;;;;5078942;28;20376;-57
2023/08/28 12:28:02;;;;;;;1163.65;999.90;;;;;;;;;;5069992;28;20031;-58
2023/08/28 12:30:28;;;;;;;1230.10;999.90;;;;;;;;;;5081084;28;20039;-59
2023/08/28 12:32:54;;;;;;;1215.00;999.90;;;;;;;;;;5081544;28;20071;-58
2023/08/28 12:35:20;;;;;;;1158.97;999.90;;;;;;;;;;5078047;28;20264;-59
2023/08/28 12:37:51;;;;;;;1176.20;999.90;;;;;;;;;;5073745;28;20047;-59
2023/08/28 12:40:17;;;;;;;1086.72;973.53;;;;;;;;;;5078286;28;20031;-57
2023/08/28 12:42:42;;;;;;;1100.13;986.17;;;;;;;;;;5074099;28;20029;-58
2023/08/28 12:45:08;;;;;;;1125.35;999.90;;;;;;;;;;5075514;28;20107;-60
2023/08/28 12:47:33;;;;;;;1101.00;987.20;;;;;;;;;;5081809;28;20031;-60
2023/08/28 12:49:58;;;;;;;1103.77;989.70;;;;;;;;;;5076187;28;20056;-59
2023/08/28 12:52:24;;;;;;;1096.73;983.10;;;;;;;;;;5065774;28;20050;-59
2023/08/28 12:54:49;;;;;;;1097.82;984.47;;;;;;;;;;5051919;28;20384;-60
2023/08/28 12:57:14;;;;;;;1169.90;999.90;;;;;;;;;;5073980;28;20020;-59
2023/08/28 12:59:39;;;;;;;1229.20;999.90;;;;;;;;;;5071607;28;20028;-60
2023/08/28 13:02:05;;;;;;;1230.53;999.90;;;;;;;;;;5069081;28;20111;-59
2023/08/28 13:04:30;;;;;;;1245.18;999.90;;;;;;;;;;5074770;28;20276;-58
2023/08/28 13:06:55;;;;;;;1206.87;999.90;;;;;;;;;;5076109;28;20032;-60
2023/08/28 13:09:21;;;;;;;1224.17;999.90;;;;;;;;;;5080391;28;20022;-61
2023/08/28 13:11:47;;;;;;;1205.55;999.90;;;;;;;;;;5082794;28;20035;-61
2023/08/28 13:14:13;;;;;;;1102.05;981.45;;;;;;;;;;5071834;28;20039;-61
2023/08/28 13:16:40;;;;;;;1152.57;999.90;;;;;;;;;;5075540;28;20126;-60
2023/08/28 13:19:06;;;;;;;1161.90;999.90;;;;;;;;;;5075987;28;20107;-58
2023/08/28 13:21:31;;;;;;;1164.07;999.90;;;;;;;;;;5073031;28;20111;-59
2023/08/28 13:23:57;;;;;;;1140.88;999.90;;;;;;;;;;5077717;28;20021;-58
2023/08/28 13:26:22;;;;;;;1145.97;999.90;;;;;;;;;;5071022;28;20522;-56
2023/08/28 13:28:47;;;;;;;1184.60;999.90;;;;;;;;;;5076860;28;20268;-60
2023/08/28 13:31:13;;;;;;;1215.68;999.90;;;;;;;;;;5077254;28;20032;-59
2023/08/28 13:33:38;;;;;;;1227.45;999.90;;;;;;;;;;5075561;28;20719;-58
2023/08/28 13:36:06;;;;;;;1142.22;999.90;;;;;;;;;;5078219;28;20031;-60
2023/08/28 13:38:32;;;;;;;1111.00;994.70;;;;;;;;;;5067176;28;20035;-59
2023/08/28 13:41:01;;;;;;;1175.03;999.90;;;;;;;;;;5080160;28;20571;-60
2023/08/28 13:43:26;;;;;;;1196.90;999.90;;;;;;;;;;5082875;28;20067;-59